sensor_id;sensor_type;location;lat;lon;timestamp;P1;durP1;ratioP1;P2;durP2;ratioP2
7773;SDS011;3931;42.260;23.116;2022-12-24T00:02:09;56.80;;;27.90;;
7773;SDS011;3931;42.260;23.116;2022-12-24T00:04:35;84.50;;;29.20;;
7773;SDS011;3931;42.260;23.116;2022-12-24T00:07:01;59.87;;;28.37;;
7773;SDS011;3931;42.260;23.116;2022-12-24T00:09:28;53.93;;;25.73;;
7773;SDS011;3931;42.260;23.116;2022-12-24T00:11:54;53.60;;;27.63;;
7773;SDS011;3931;42.260;23.116;2022-12-24T00:14:20;54.33;;;26.57;;
7773;SDS011;3931;42.260;23.116;2022-12-24T00:16:46;58.70;;;27.63;;
7773;SDS011;3931;42.260;23.116;2022-12-24T00:19:13;52.87;;;25.30;;
7773;SDS011;3931;42.260;23.116;2022-12-24T00:21:39;60.97;;;23.67;;
7773;SDS011;3931;42.260;23.116;2022-12-24T00:24:05;46.07;;;24.77;;
7773;SDS011;3931;42.260;23.116;2022-12-24T00:26:31;50.93;;;24.00;;
7773;SDS011;3931;42.260;23.116;2022-12-24T00:28:57;52.77;;;22.90;;
7773;SDS011;3931;42.260;23.116;2022-12-24T00:31:24;48.23;;;24.10;;
7773;SDS011;3931;42.260;23.116;2022-12-24T00:33:50;46.17;;;24.27;;
7773;SDS011;3931;42.260;23.116;2022-12-24T00:36:17;42.63;;;20.67;;
7773;SDS011;3931;42.260;23.116;2022-12-24T00:38:44;44.20;;;19.50;;
7773;SDS011;3931;42.260;23.116;2022-12-24T00:41:11;40.47;;;19.00;;
7773;SDS011;3931;42.260;23.116;2022-12-24T00:43:48;42.30;;;19.20;;
7773;SDS011;3931;42.260;23.116;2022-12-24T00:46:15;43.63;;;22.17;;
7773;SDS011;3931;42.260;23.116;2022-12-24T00:48:41;56.23;;;22.57;;
7773;SDS011;3931;42.260;23.116;2022-12-24T00:51:07;40.90;;;21.13;;
7773;SDS011;3931;42.260;23.116;2022-12-24T00:53:34;39.63;;;19.00;;
7773;SDS011;3931;42.260;23.116;2022-12-24T00:56:00;48.83;;;19.90;;
7773;SDS011;3931;42.260;23.116;2022-12-24T00:58:26;42.30;;;19.13;;
7773;SDS011;3931;42.260;23.116;2022-12-24T01:00:52;39.20;;;18.03;;
7773;SDS011;3931;42.260;23.116;2022-12-24T01:03:18;46.40;;;19.70;;
7773;SDS011;3931;42.260;23.116;2022-12-24T01:05:44;45.97;;;20.67;;
7773;SDS011;3931;42.260;23.116;2022-12-24T01:08:10;55.53;;;21.43;;
7773;SDS011;3931;42.260;23.116;2022-12-24T01:10:37;51.80;;;23.23;;
7773;SDS011;3931;42.260;23.116;2022-12-24T01:13:03;41.73;;;19.70;;
7773;SDS011;3931;42.260;23.116;2022-12-24T01:15:29;41.53;;;19.93;;
7773;SDS011;3931;42.260;23.116;2022-12-24T01:17:55;41.70;;;20.70;;
7773;SDS011;3931;42.260;23.116;2022-12-24T01:20:22;48.90;;;22.10;;
7773;SDS011;3931;42.260;23.116;2022-12-24T01:22:51;48.23;;;21.70;;
7773;SDS011;3931;42.260;23.116;2022-12-24T01:25:17;48.30;;;21.70;;
7773;SDS011;3931;42.260;23.116;2022-12-24T01:27:44;42.70;;;20.30;;
7773;SDS011;3931;42.260;23.116;2022-12-24T01:30:11;45.13;;;20.63;;
7773;SDS011;3931;42.260;23.116;2022-12-24T01:32:38;42.90;;;20.37;;
7773;SDS011;3931;42.260;23.116;2022-12-24T01:35:05;49.20;;;20.63;;
7773;SDS011;3931;42.260;23.116;2022-12-24T01:37:31;48.33;;;22.03;;
7773;SDS011;3931;42.260;23.116;2022-12-24T01:39:57;38.10;;;19.93;;
7773;SDS011;3931;42.260;23.116;2022-12-24T01:42:38;46.07;;;21.30;;
7773;SDS011;3931;42.260;23.116;2022-12-24T01:45:39;44.37;;;22.20;;
7773;SDS011;3931;42.260;23.116;2022-12-24T01:48:14;44.50;;;21.73;;
7773;SDS011;3931;42.260;23.116;2022-12-24T01:50:44;44.53;;;21.60;;
7773;SDS011;3931;42.260;23.116;2022-12-24T01:53:11;42.90;;;21.53;;
7773;SDS011;3931;42.260;23.116;2022-12-24T01:55:39;53.53;;;25.27;;
7773;SDS011;3931;42.260;23.116;2022-12-24T01:58:06;56.03;;;26.30;;
7773;SDS011;3931;42.260;23.116;2022-12-24T02:00:34;60.70;;;28.00;;
7773;SDS011;3931;42.260;23.116;2022-12-24T02:03:01;47.37;;;25.23;;
7773;SDS011;3931;42.260;23.116;2022-12-24T02:05:27;53.23;;;25.80;;
7773;SDS011;3931;42.260;23.116;2022-12-24T02:07:56;51.97;;;24.57;;
7773;SDS011;3931;42.260;23.116;2022-12-24T02:10:24;49.13;;;23.63;;
7773;SDS011;3931;42.260;23.116;2022-12-24T02:12:50;44.13;;;22.80;;
7773;SDS011;3931;42.260;23.116;2022-12-24T02:15:17;44.43;;;22.30;;
7773;SDS011;3931;42.260;23.116;2022-12-24T02:17:46;49.50;;;23.00;;
7773;SDS011;3931;42.260;23.116;2022-12-24T02:26:26;44.03;;;21.57;;
7773;SDS011;3931;42.260;23.116;2022-12-24T02:29:10;57.67;;;26.10;;
7773;SDS011;3931;42.260;23.116;2022-12-24T02:31:52;90.10;;;40.03;;
7773;SDS011;3931;42.260;23.116;2022-12-24T02:34:27;45.17;;;21.83;;
7773;SDS011;3931;42.260;23.116;2022-12-24T02:36:57;39.17;;;20.40;;
7773;SDS011;3931;42.260;23.116;2022-12-24T02:39:29;44.27;;;20.53;;
7773;SDS011;3931;42.260;23.116;2022-12-24T02:42:02;43.80;;;22.07;;
7773;SDS011;3931;42.260;23.116;2022-12-24T02:44:33;55.40;;;24.60;;
7773;SDS011;3931;42.260;23.116;2022-12-24T02:47:04;48.00;;;22.63;;
7773;SDS011;3931;42.260;23.116;2022-12-24T02:49:31;46.63;;;20.87;;
7773;SDS011;3931;42.260;23.116;2022-12-24T02:51:57;43.37;;;20.50;;
7773;SDS011;3931;42.260;23.116;2022-12-24T02:54:23;38.77;;;17.93;;
7773;SDS011;3931;42.260;23.116;2022-12-24T02:56:53;29.37;;;14.47;;
7773;SDS011;3931;42.260;23.116;2022-12-24T02:59:34;32.30;;;13.93;;
7773;SDS011;3931;42.260;23.116;2022-12-24T03:02:14;35.57;;;17.23;;
7773;SDS011;3931;42.260;23.116;2022-12-24T03:04:51;34.37;;;16.80;;
7773;SDS011;3931;42.260;23.116;2022-12-24T03:07:23;37.00;;;18.80;;
7773;SDS011;3931;42.260;23.116;2022-12-24T03:09:55;40.30;;;17.67;;
7773;SDS011;3931;42.260;23.116;2022-12-24T03:12:32;44.97;;;19.40;;
7773;SDS011;3931;42.260;23.116;2022-12-24T03:15:03;38.60;;;17.30;;
7773;SDS011;3931;42.260;23.116;2022-12-24T03:17:32;46.10;;;19.83;;
7773;SDS011;3931;42.260;23.116;2022-12-24T03:20:01;60.50;;;20.90;;
7773;SDS011;3931;42.260;23.116;2022-12-24T03:22:29;52.47;;;19.67;;
7773;SDS011;3931;42.260;23.116;2022-12-24T03:24:57;46.23;;;17.80;;
7773;SDS011;3931;42.260;23.116;2022-12-24T03:27:24;35.33;;;16.17;;
7773;SDS011;3931;42.260;23.116;2022-12-24T03:29:51;40.77;;;17.70;;
7773;SDS011;3931;42.260;23.116;2022-12-24T03:32:21;38.13;;;18.07;;
7773;SDS011;3931;42.260;23.116;2022-12-24T03:34:49;30.03;;;16.90;;
7773;SDS011;3931;42.260;23.116;2022-12-24T03:37:15;30.37;;;16.00;;
7773;SDS011;3931;42.260;23.116;2022-12-24T03:39:41;27.97;;;15.20;;
7773;SDS011;3931;42.260;23.116;2022-12-24T03:42:07;34.00;;;17.13;;
7773;SDS011;3931;42.260;23.116;2022-12-24T03:44:33;39.37;;;20.80;;
7773;SDS011;3931;42.260;23.116;2022-12-24T03:46:59;52.63;;;22.77;;
7773;SDS011;3931;42.260;23.116;2022-12-24T03:49:25;43.30;;;21.57;;
7773;SDS011;3931;42.260;23.116;2022-12-24T03:51:55;50.80;;;24.10;;
7773;SDS011;3931;42.260;23.116;2022-12-24T03:54:21;39.80;;;19.20;;
7773;SDS011;3931;42.260;23.116;2022-12-24T03:56:47;36.37;;;17.80;;
7773;SDS011;3931;42.260;23.116;2022-12-24T03:59:13;39.07;;;19.67;;
7773;SDS011;3931;42.260;23.116;2022-12-24T04:01:39;33.47;;;16.73;;
7773;SDS011;3931;42.260;23.116;2022-12-24T04:04:05;41.87;;;19.87;;
7773;SDS011;3931;42.260;23.116;2022-12-24T04:06:31;45.03;;;21.70;;
7773;SDS011;3931;42.260;23.116;2022-12-24T04:08:58;54.57;;;28.23;;
7773;SDS011;3931;42.260;23.116;2022-12-24T04:11:26;65.93;;;29.17;;
7773;SDS011;3931;42.260;23.116;2022-12-24T04:13:52;60.30;;;26.73;;
7773;SDS011;3931;42.260;23.116;2022-12-24T04:16:18;56.37;;;23.47;;
7773;SDS011;3931;42.260;23.116;2022-12-24T04:18:44;65.20;;;24.47;;
7773;SDS011;3931;42.260;23.116;2022-12-24T04:21:10;48.47;;;21.43;;
7773;SDS011;3931;42.260;23.116;2022-12-24T04:23:36;46.17;;;22.70;;
7773;SDS011;3931;42.260;23.116;2022-12-24T04:26:05;54.20;;;27.20;;
7773;SDS011;3931;42.260;23.116;2022-12-24T04:28:32;54.03;;;27.57;;
7773;SDS011;3931;42.260;23.116;2022-12-24T04:31:00;80.20;;;35.00;;
7773;SDS011;3931;42.260;23.116;2022-12-24T04:33:27;84.83;;;37.50;;
7773;SDS011;3931;42.260;23.116;2022-12-24T04:35:53;70.73;;;33.30;;
7773;SDS011;3931;42.260;23.116;2022-12-24T04:38:19;70.97;;;32.50;;
7773;SDS011;3931;42.260;23.116;2022-12-24T04:40:45;59.43;;;26.60;;
7773;SDS011;3931;42.260;23.116;2022-12-24T04:43:12;66.57;;;27.30;;
7773;SDS011;3931;42.260;23.116;2022-12-24T04:45:38;66.93;;;28.00;;
7773;SDS011;3931;42.260;23.116;2022-12-24T04:48:04;80.67;;;35.73;;
7773;SDS011;3931;42.260;23.116;2022-12-24T04:50:30;107.60;;;51.50;;
7773;SDS011;3931;42.260;23.116;2022-12-24T04:52:56;61.37;;;30.20;;
7773;SDS011;3931;42.260;23.116;2022-12-24T04:55:23;84.27;;;37.80;;
7773;SDS011;3931;42.260;23.116;2022-12-24T04:57:49;71.97;;;34.97;;
7773;SDS011;3931;42.260;23.116;2022-12-24T05:00:16;58.33;;;29.47;;
7773;SDS011;3931;42.260;23.116;2022-12-24T05:02:42;42.47;;;21.37;;
7773;SDS011;3931;42.260;23.116;2022-12-24T05:05:08;31.03;;;18.97;;
7773;SDS011;3931;42.260;23.116;2022-12-24T05:07:34;32.37;;;16.90;;
7773;SDS011;3931;42.260;23.116;2022-12-24T05:10:00;49.33;;;22.93;;
7773;SDS011;3931;42.260;23.116;2022-12-24T05:12:26;39.50;;;22.20;;
7773;SDS011;3931;42.260;23.116;2022-12-24T05:14:52;78.37;;;39.17;;
7773;SDS011;3931;42.260;23.116;2022-12-24T05:17:19;75.30;;;34.73;;
7773;SDS011;3931;42.260;23.116;2022-12-24T05:19:45;90.63;;;39.70;;
7773;SDS011;3931;42.260;23.116;2022-12-24T05:22:11;108.80;;;46.03;;
7773;SDS011;3931;42.260;23.116;2022-12-24T05:24:55;139.67;;;59.97;;
7773;SDS011;3931;42.260;23.116;2022-12-24T05:27:39;60.60;;;28.00;;
7773;SDS011;3931;42.260;23.116;2022-12-24T05:30:05;108.83;;;45.77;;
7773;SDS011;3931;42.260;23.116;2022-12-24T05:32:33;61.17;;;27.37;;
7773;SDS011;3931;42.260;23.116;2022-12-24T05:34:59;45.30;;;18.83;;
7773;SDS011;3931;42.260;23.116;2022-12-24T05:37:25;41.00;;;17.70;;
7773;SDS011;3931;42.260;23.116;2022-12-24T05:39:51;32.53;;;14.20;;
7773;SDS011;3931;42.260;23.116;2022-12-24T05:42:17;35.93;;;15.70;;
7773;SDS011;3931;42.260;23.116;2022-12-24T05:44:43;49.60;;;22.03;;
7773;SDS011;3931;42.260;23.116;2022-12-24T05:47:09;42.70;;;19.57;;
7773;SDS011;3931;42.260;23.116;2022-12-24T05:49:36;45.13;;;18.50;;
7773;SDS011;3931;42.260;23.116;2022-12-24T05:52:02;36.83;;;17.60;;
7773;SDS011;3931;42.260;23.116;2022-12-24T05:54:28;31.97;;;14.93;;
7773;SDS011;3931;42.260;23.116;2022-12-24T05:56:54;39.47;;;17.87;;
7773;SDS011;3931;42.260;23.116;2022-12-24T05:59:20;39.50;;;18.67;;
7773;SDS011;3931;42.260;23.116;2022-12-24T06:01:46;48.57;;;22.70;;
7773;SDS011;3931;42.260;23.116;2022-12-24T06:04:12;48.43;;;22.23;;
7773;SDS011;3931;42.260;23.116;2022-12-24T06:06:39;66.13;;;29.40;;
7773;SDS011;3931;42.260;23.116;2022-12-24T06:09:05;53.27;;;27.60;;
7773;SDS011;3931;42.260;23.116;2022-12-24T06:11:32;124.83;;;32.57;;
7773;SDS011;3931;42.260;23.116;2022-12-24T06:13:58;115.20;;;46.17;;
7773;SDS011;3931;42.260;23.116;2022-12-24T06:16:24;117.60;;;51.20;;
7773;SDS011;3931;42.260;23.116;2022-12-24T06:18:50;142.47;;;59.60;;
7773;SDS011;3931;42.260;23.116;2022-12-24T06:21:17;103.77;;;44.27;;
7773;SDS011;3931;42.260;23.116;2022-12-24T06:23:44;95.03;;;42.13;;
7773;SDS011;3931;42.260;23.116;2022-12-24T06:26:11;70.33;;;34.90;;
7773;SDS011;3931;42.260;23.116;2022-12-24T06:28:39;59.67;;;32.40;;
7773;SDS011;3931;42.260;23.116;2022-12-24T06:31:05;64.80;;;30.63;;
7773;SDS011;3931;42.260;23.116;2022-12-24T06:33:35;69.67;;;33.30;;
7773;SDS011;3931;42.260;23.116;2022-12-24T06:36:01;66.20;;;30.00;;
7773;SDS011;3931;42.260;23.116;2022-12-24T06:38:31;68.83;;;33.60;;
7773;SDS011;3931;42.260;23.116;2022-12-24T06:40:58;64.93;;;32.77;;
7773;SDS011;3931;42.260;23.116;2022-12-24T06:43:24;87.03;;;40.20;;
7773;SDS011;3931;42.260;23.116;2022-12-24T06:45:50;81.03;;;38.37;;
7773;SDS011;3931;42.260;23.116;2022-12-24T06:48:16;75.13;;;36.23;;
7773;SDS011;3931;42.260;23.116;2022-12-24T06:50:42;77.70;;;39.63;;
7773;SDS011;3931;42.260;23.116;2022-12-24T06:53:08;72.37;;;36.90;;
7773;SDS011;3931;42.260;23.116;2022-12-24T06:55:34;98.60;;;44.03;;
7773;SDS011;3931;42.260;23.116;2022-12-24T06:58:01;88.83;;;45.67;;
7773;SDS011;3931;42.260;23.116;2022-12-24T07:00:27;71.57;;;35.13;;
7773;SDS011;3931;42.260;23.116;2022-12-24T07:02:53;76.63;;;38.27;;
7773;SDS011;3931;42.260;23.116;2022-12-24T07:05:20;76.33;;;37.73;;
7773;SDS011;3931;42.260;23.116;2022-12-24T07:07:46;86.90;;;40.33;;
7773;SDS011;3931;42.260;23.116;2022-12-24T07:10:13;83.20;;;41.07;;
7773;SDS011;3931;42.260;23.116;2022-12-24T07:12:40;98.47;;;42.30;;
7773;SDS011;3931;42.260;23.116;2022-12-24T07:15:08;107.90;;;45.90;;
7773;SDS011;3931;42.260;23.116;2022-12-24T07:17:35;132.17;;;55.57;;
7773;SDS011;3931;42.260;23.116;2022-12-24T07:20:01;86.83;;;41.90;;
7773;SDS011;3931;42.260;23.116;2022-12-24T07:22:27;117.40;;;51.10;;
7773;SDS011;3931;42.260;23.116;2022-12-24T07:24:53;89.13;;;44.40;;
7773;SDS011;3931;42.260;23.116;2022-12-24T07:27:20;88.17;;;42.30;;
7773;SDS011;3931;42.260;23.116;2022-12-24T07:29:46;103.60;;;44.20;;
7773;SDS011;3931;42.260;23.116;2022-12-24T07:32:13;91.70;;;44.53;;
7773;SDS011;3931;42.260;23.116;2022-12-24T07:34:39;76.87;;;40.43;;
7773;SDS011;3931;42.260;23.116;2022-12-24T07:37:05;80.30;;;35.57;;
7773;SDS011;3931;42.260;23.116;2022-12-24T07:39:32;82.03;;;39.97;;
7773;SDS011;3931;42.260;23.116;2022-12-24T07:41:58;72.43;;;39.00;;
7773;SDS011;3931;42.260;23.116;2022-12-24T07:44:24;70.07;;;36.90;;
7773;SDS011;3931;42.260;23.116;2022-12-24T07:46:50;77.67;;;39.37;;
7773;SDS011;3931;42.260;23.116;2022-12-24T07:49:17;94.87;;;41.10;;
7773;SDS011;3931;42.260;23.116;2022-12-24T07:51:43;105.10;;;48.80;;
7773;SDS011;3931;42.260;23.116;2022-12-24T07:54:09;85.30;;;48.23;;
7773;SDS011;3931;42.260;23.116;2022-12-24T07:56:35;98.03;;;46.60;;
7773;SDS011;3931;42.260;23.116;2022-12-24T07:59:01;106.27;;;45.40;;
7773;SDS011;3931;42.260;23.116;2022-12-24T08:01:27;74.67;;;43.10;;
7773;SDS011;3931;42.260;23.116;2022-12-24T08:03:53;81.93;;;46.53;;
7773;SDS011;3931;42.260;23.116;2022-12-24T08:06:20;82.47;;;41.90;;
7773;SDS011;3931;42.260;23.116;2022-12-24T08:08:46;74.80;;;40.57;;
7773;SDS011;3931;42.260;23.116;2022-12-24T08:11:12;87.70;;;44.70;;
7773;SDS011;3931;42.260;23.116;2022-12-24T08:13:39;89.37;;;42.30;;
7773;SDS011;3931;42.260;23.116;2022-12-24T08:16:05;71.90;;;37.20;;
7773;SDS011;3931;42.260;23.116;2022-12-24T08:18:31;102.07;;;47.47;;
7773;SDS011;3931;42.260;23.116;2022-12-24T08:20:58;91.73;;;42.10;;
7773;SDS011;3931;42.260;23.116;2022-12-24T08:23:24;83.13;;;44.27;;
7773;SDS011;3931;42.260;23.116;2022-12-24T08:25:50;95.20;;;46.03;;
7773;SDS011;3931;42.260;23.116;2022-12-24T08:28:19;103.83;;;43.10;;
7773;SDS011;3931;42.260;23.116;2022-12-24T08:30:46;81.43;;;39.00;;
7773;SDS011;3931;42.260;23.116;2022-12-24T08:33:13;78.83;;;40.77;;
7773;SDS011;3931;42.260;23.116;2022-12-24T08:35:39;84.23;;;38.37;;
7773;SDS011;3931;42.260;23.116;2022-12-24T08:38:05;81.53;;;36.20;;
7773;SDS011;3931;42.260;23.116;2022-12-24T08:40:32;78.13;;;39.10;;
7773;SDS011;3931;42.260;23.116;2022-12-24T08:42:58;73.30;;;35.47;;
7773;SDS011;3931;42.260;23.116;2022-12-24T08:45:26;74.07;;;35.23;;
7773;SDS011;3931;42.260;23.116;2022-12-24T08:47:52;68.73;;;34.60;;
7773;SDS011;3931;42.260;23.116;2022-12-24T08:50:18;69.90;;;34.50;;
7773;SDS011;3931;42.260;23.116;2022-12-24T08:52:44;78.53;;;35.83;;
7773;SDS011;3931;42.260;23.116;2022-12-24T08:55:10;60.73;;;32.97;;
7773;SDS011;3931;42.260;23.116;2022-12-24T08:57:37;66.43;;;34.17;;
7773;SDS011;3931;42.260;23.116;2022-12-24T09:00:03;102.97;;;38.13;;
7773;SDS011;3931;42.260;23.116;2022-12-24T09:02:30;91.20;;;38.00;;
7773;SDS011;3931;42.260;23.116;2022-12-24T09:04:56;123.87;;;48.83;;
7773;SDS011;3931;42.260;23.116;2022-12-24T09:07:22;78.80;;;34.17;;
7773;SDS011;3931;42.260;23.116;2022-12-24T09:09:49;83.70;;;36.87;;
7773;SDS011;3931;42.260;23.116;2022-12-24T09:12:15;120.50;;;52.80;;
7773;SDS011;3931;42.260;23.116;2022-12-24T09:14:42;110.80;;;45.20;;
7773;SDS011;3931;42.260;23.116;2022-12-24T09:17:08;119.63;;;51.30;;
7773;SDS011;3931;42.260;23.116;2022-12-24T09:19:34;109.30;;;49.53;;
7773;SDS011;3931;42.260;23.116;2022-12-24T09:22:00;91.80;;;45.97;;
7773;SDS011;3931;42.260;23.116;2022-12-24T09:24:26;109.93;;;48.70;;
7773;SDS011;3931;42.260;23.116;2022-12-24T09:26:52;85.77;;;43.20;;
7773;SDS011;3931;42.260;23.116;2022-12-24T09:29:18;87.53;;;44.90;;
7773;SDS011;3931;42.260;23.116;2022-12-24T09:31:45;126.97;;;57.97;;
7773;SDS011;3931;42.260;23.116;2022-12-24T09:34:11;119.10;;;62.27;;
7773;SDS011;3931;42.260;23.116;2022-12-24T09:36:37;106.23;;;54.93;;
7773;SDS011;3931;42.260;23.116;2022-12-24T09:39:03;92.47;;;44.23;;
7773;SDS011;3931;42.260;23.116;2022-12-24T09:41:36;83.53;;;41.13;;
7773;SDS011;3931;42.260;23.116;2022-12-24T09:44:16;78.13;;;36.87;;
7773;SDS011;3931;42.260;23.116;2022-12-24T09:46:49;102.63;;;45.80;;
7773;SDS011;3931;42.260;23.116;2022-12-24T09:49:17;67.87;;;36.50;;
7773;SDS011;3931;42.260;23.116;2022-12-24T09:51:48;62.37;;;31.07;;
7773;SDS011;3931;42.260;23.116;2022-12-24T09:54:19;91.87;;;37.43;;
7773;SDS011;3931;42.260;23.116;2022-12-24T09:56:49;59.73;;;29.37;;
7773;SDS011;3931;42.260;23.116;2022-12-24T09:59:17;63.03;;;31.57;;
7773;SDS011;3931;42.260;23.116;2022-12-24T10:01:46;106.53;;;39.80;;
7773;SDS011;3931;42.260;23.116;2022-12-24T10:04:16;63.80;;;34.20;;
7773;SDS011;3931;42.260;23.116;2022-12-24T10:06:46;107.70;;;43.40;;
7773;SDS011;3931;42.260;23.116;2022-12-24T10:09:19;81.70;;;36.23;;
7773;SDS011;3931;42.260;23.116;2022-12-24T10:11:55;86.90;;;39.00;;
7773;SDS011;3931;42.260;23.116;2022-12-24T10:14:32;106.53;;;42.37;;
7773;SDS011;3931;42.260;23.116;2022-12-24T10:17:18;74.27;;;37.60;;
7773;SDS011;3931;42.260;23.116;2022-12-24T10:19:56;133.03;;;49.73;;
7773;SDS011;3931;42.260;23.116;2022-12-24T10:22:31;111.93;;;45.27;;
7773;SDS011;3931;42.260;23.116;2022-12-24T10:25:04;83.30;;;39.90;;
7773;SDS011;3931;42.260;23.116;2022-12-24T10:27:38;202.03;;;57.80;;
7773;SDS011;3931;42.260;23.116;2022-12-24T10:30:06;171.53;;;54.67;;
7773;SDS011;3931;42.260;23.116;2022-12-24T10:32:38;97.73;;;45.53;;
7773;SDS011;3931;42.260;23.116;2022-12-24T10:35:07;73.00;;;40.20;;
7773;SDS011;3931;42.260;23.116;2022-12-24T10:37:45;90.40;;;41.77;;
7773;SDS011;3931;42.260;23.116;2022-12-24T10:40:14;71.03;;;38.10;;
7773;SDS011;3931;42.260;23.116;2022-12-24T10:42:48;69.57;;;37.20;;
7773;SDS011;3931;42.260;23.116;2022-12-24T10:45:15;58.30;;;30.20;;
7773;SDS011;3931;42.260;23.116;2022-12-24T10:47:46;57.50;;;28.30;;
7773;SDS011;3931;42.260;23.116;2022-12-24T10:50:17;50.60;;;25.60;;
7773;SDS011;3931;42.260;23.116;2022-12-24T10:52:46;65.37;;;28.23;;
7773;SDS011;3931;42.260;23.116;2022-12-24T10:55:20;45.97;;;23.40;;
7773;SDS011;3931;42.260;23.116;2022-12-24T10:57:55;39.90;;;21.43;;
7773;SDS011;3931;42.260;23.116;2022-12-24T11:00:25;58.53;;;22.87;;
7773;SDS011;3931;42.260;23.116;2022-12-24T11:03:05;56.20;;;25.80;;
7773;SDS011;3931;42.260;23.116;2022-12-24T11:05:34;44.67;;;21.13;;
7773;SDS011;3931;42.260;23.116;2022-12-24T11:08:01;50.50;;;23.17;;
7773;SDS011;3931;42.260;23.116;2022-12-24T11:10:28;34.27;;;17.27;;
7773;SDS011;3931;42.260;23.116;2022-12-24T11:12:55;42.20;;;21.07;;
7773;SDS011;3931;42.260;23.116;2022-12-24T11:15:21;53.07;;;21.43;;
7773;SDS011;3931;42.260;23.116;2022-12-24T11:17:52;47.23;;;20.83;;
7773;SDS011;3931;42.260;23.116;2022-12-24T11:20:21;55.90;;;19.37;;
7773;SDS011;3931;42.260;23.116;2022-12-24T11:22:51;37.23;;;19.07;;
7773;SDS011;3931;42.260;23.116;2022-12-24T11:25:19;58.13;;;24.77;;
7773;SDS011;3931;42.260;23.116;2022-12-24T11:27:47;57.33;;;23.83;;
7773;SDS011;3931;42.260;23.116;2022-12-24T11:30:22;51.90;;;23.70;;
7773;SDS011;3931;42.260;23.116;2022-12-24T11:35:44;49.33;;;19.10;;
7773;SDS011;3931;42.260;23.116;2022-12-24T11:38:16;51.27;;;23.13;;
7773;SDS011;3931;42.260;23.116;2022-12-24T11:40:45;60.70;;;24.53;;
7773;SDS011;3931;42.260;23.116;2022-12-24T11:43:14;50.30;;;22.37;;
7773;SDS011;3931;42.260;23.116;2022-12-24T11:45:46;45.30;;;20.90;;
7773;SDS011;3931;42.260;23.116;2022-12-24T11:48:22;33.63;;;17.63;;
7773;SDS011;3931;42.260;23.116;2022-12-24T11:50:55;50.20;;;18.87;;
7773;SDS011;3931;42.260;23.116;2022-12-24T11:53:24;47.93;;;17.90;;
7773;SDS011;3931;42.260;23.116;2022-12-24T11:55:54;51.33;;;17.70;;
7773;SDS011;3931;42.260;23.116;2022-12-24T11:58:23;34.40;;;20.00;;
7773;SDS011;3931;42.260;23.116;2022-12-24T12:00:56;43.27;;;22.20;;
7773;SDS011;3931;42.260;23.116;2022-12-24T12:03:28;51.37;;;18.13;;
7773;SDS011;3931;42.260;23.116;2022-12-24T12:06:01;42.60;;;19.10;;
7773;SDS011;3931;42.260;23.116;2022-12-24T12:08:31;52.30;;;23.80;;
7773;SDS011;3931;42.260;23.116;2022-12-24T12:10:59;58.83;;;24.60;;
7773;SDS011;3931;42.260;23.116;2022-12-24T12:13:28;66.47;;;21.73;;
7773;SDS011;3931;42.260;23.116;2022-12-24T12:16:01;68.10;;;27.33;;
7773;SDS011;3931;42.260;23.116;2022-12-24T12:18:36;79.87;;;30.90;;
7773;SDS011;3931;42.260;23.116;2022-12-24T12:21:04;78.53;;;29.43;;
7773;SDS011;3931;42.260;23.116;2022-12-24T12:23:36;80.00;;;30.63;;
7773;SDS011;3931;42.260;23.116;2022-12-24T12:26:09;72.83;;;26.63;;
7773;SDS011;3931;42.260;23.116;2022-12-24T12:28:40;81.43;;;25.67;;
7773;SDS011;3931;42.260;23.116;2022-12-24T12:31:11;51.40;;;23.83;;
7773;SDS011;3931;42.260;23.116;2022-12-24T12:33:41;51.23;;;24.00;;
7773;SDS011;3931;42.260;23.116;2022-12-24T12:36:12;59.47;;;28.10;;
7773;SDS011;3931;42.260;23.116;2022-12-24T12:38:40;71.00;;;28.70;;
7773;SDS011;3931;42.260;23.116;2022-12-24T12:41:10;68.53;;;30.30;;
7773;SDS011;3931;42.260;23.116;2022-12-24T12:43:53;68.10;;;33.40;;
7773;SDS011;3931;42.260;23.116;2022-12-24T12:46:39;82.10;;;36.87;;
7773;SDS011;3931;42.260;23.116;2022-12-24T12:49:23;86.10;;;33.47;;
7773;SDS011;3931;42.260;23.116;2022-12-24T12:52:00;88.70;;;37.23;;
7773;SDS011;3931;42.260;23.116;2022-12-24T12:54:38;79.67;;;37.53;;
7773;SDS011;3931;42.260;23.116;2022-12-24T12:57:13;106.17;;;43.40;;
7773;SDS011;3931;42.260;23.116;2022-12-24T12:59:43;77.10;;;33.53;;
7773;SDS011;3931;42.260;23.116;2022-12-24T13:02:18;61.93;;;27.77;;
7773;SDS011;3931;42.260;23.116;2022-12-24T13:11:04;56.37;;;31.63;;
7773;SDS011;3931;42.260;23.116;2022-12-24T13:13:58;71.60;;;30.23;;
7773;SDS011;3931;42.260;23.116;2022-12-24T13:19:55;72.67;;;29.80;;
7773;SDS011;3931;42.260;23.116;2022-12-24T13:22:39;68.47;;;28.40;;
7773;SDS011;3931;42.260;23.116;2022-12-24T13:25:18;72.40;;;30.63;;
7773;SDS011;3931;42.260;23.116;2022-12-24T13:27:47;46.30;;;23.27;;
7773;SDS011;3931;42.260;23.116;2022-12-24T13:32:59;58.33;;;26.47;;
7773;SDS011;3931;42.260;23.116;2022-12-24T13:35:33;57.43;;;22.67;;
7773;SDS011;3931;42.260;23.116;2022-12-24T13:40:58;40.43;;;22.30;;
7773;SDS011;3931;42.260;23.116;2022-12-24T13:44:14;47.87;;;22.80;;
7773;SDS011;3931;42.260;23.116;2022-12-24T13:46:51;42.67;;;20.73;;
7773;SDS011;3931;42.260;23.116;2022-12-24T13:49:24;47.27;;;22.67;;
7773;SDS011;3931;42.260;23.116;2022-12-24T13:52:04;56.00;;;24.60;;
7773;SDS011;3931;42.260;23.116;2022-12-24T13:54:32;48.00;;;24.27;;
7773;SDS011;3931;42.260;23.116;2022-12-24T13:56:59;48.17;;;23.37;;
7773;SDS011;3931;42.260;23.116;2022-12-24T13:59:27;45.80;;;22.20;;
7773;SDS011;3931;42.260;23.116;2022-12-24T14:01:59;52.07;;;24.10;;
7773;SDS011;3931;42.260;23.116;2022-12-24T14:04:26;41.13;;;22.13;;
7773;SDS011;3931;42.260;23.116;2022-12-24T14:06:56;47.60;;;24.60;;
7773;SDS011;3931;42.260;23.116;2022-12-24T14:09:24;44.00;;;22.47;;
7773;SDS011;3931;42.260;23.116;2022-12-24T14:18:02;32.33;;;14.37;;
7773;SDS011;3931;42.260;23.116;2022-12-24T14:20:30;30.63;;;13.50;;
7773;SDS011;3931;42.260;23.116;2022-12-24T14:22:57;26.03;;;13.00;;
7773;SDS011;3931;42.260;23.116;2022-12-24T14:25:24;35.53;;;19.53;;
7773;SDS011;3931;42.260;23.116;2022-12-24T14:27:50;39.37;;;18.17;;
7773;SDS011;3931;42.260;23.116;2022-12-24T14:30:20;37.43;;;17.63;;
7773;SDS011;3931;42.260;23.116;2022-12-24T14:32:48;36.07;;;17.67;;
7773;SDS011;3931;42.260;23.116;2022-12-24T14:35:17;45.30;;;17.33;;
7773;SDS011;3931;42.260;23.116;2022-12-24T14:37:45;43.27;;;17.53;;
7773;SDS011;3931;42.260;23.116;2022-12-24T14:40:14;32.37;;;17.60;;
7773;SDS011;3931;42.260;23.116;2022-12-24T14:42:43;39.33;;;16.37;;
7773;SDS011;3931;42.260;23.116;2022-12-24T14:45:20;42.63;;;19.30;;
7773;SDS011;3931;42.260;23.116;2022-12-24T14:47:55;34.83;;;18.77;;
7773;SDS011;3931;42.260;23.116;2022-12-24T14:50:36;37.43;;;19.83;;
7773;SDS011;3931;42.260;23.116;2022-12-24T14:53:17;63.80;;;24.30;;
7773;SDS011;3931;42.260;23.116;2022-12-24T14:55:49;49.17;;;28.23;;
7773;SDS011;3931;42.260;23.116;2022-12-24T14:58:26;49.87;;;26.60;;
7773;SDS011;3931;42.260;23.116;2022-12-24T15:00:53;55.40;;;28.30;;
7773;SDS011;3931;42.260;23.116;2022-12-24T15:03:21;65.13;;;31.13;;
7773;SDS011;3931;42.260;23.116;2022-12-24T15:05:50;42.50;;;24.33;;
7773;SDS011;3931;42.260;23.116;2022-12-24T15:08:20;47.70;;;25.10;;
7773;SDS011;3931;42.260;23.116;2022-12-24T15:10:52;68.73;;;35.87;;
7773;SDS011;3931;42.260;23.116;2022-12-24T15:13:21;65.60;;;35.00;;
7773;SDS011;3931;42.260;23.116;2022-12-24T15:15:51;66.77;;;38.93;;